sensor_id;sensor_type;location;lat;lon;timestamp;pressure;altitude;pressure_sealevel;temperature;humidity
48792;BME280;34587;48.816;9.420;2023-01-30T00:00:58;99539.28;;;-4.43;97.65
48792;BME280;34587;48.816;9.420;2023-01-30T00:03:25;99528.06;;;-4.31;97.29
48792;BME280;34587;48.816;9.420;2023-01-30T00:05:50;99528.03;;;-4.48;96.97
48792;BME280;34587;48.816;9.420;2023-01-30T00:08:16;99522.50;;;-4.57;97.19
48792;BME280;34587;48.816;9.420;2023-01-30T00:10:41;99520.75;;;-4.58;97.01
48792;BME280;34587;48.816;9.420;2023-01-30T00:13:07;99506.84;;;-4.66;96.93
48792;BME280;34587;48.816;9.420;2023-01-30T00:15:32;99497.94;;;-4.43;97.02
48792;BME280;34587;48.816;9.420;2023-01-30T00:17:58;99493.34;;;-4.50;97.14
48792;BME280;34587;48.816;9.420;2023-01-30T00:20:23;99486.78;;;-4.47;97.36
48792;BME280;34587;48.816;9.420;2023-01-30T00:22:48;99480.78;;;-4.32;97.64
48792;BME280;34587;48.816;9.420;2023-01-30T00:25:14;99475.13;;;-4.45;96.97
48792;BME280;34587;48.816;9.420;2023-01-30T00:27:39;99478.28;;;-4.49;96.91
48792;BME280;34587;48.816;9.420;2023-01-30T00:30:05;99492.66;;;-4.31;96.79
48792;BME280;34587;48.816;9.420;2023-01-30T00:32:31;99491.41;;;-4.23;96.84
48792;BME280;34587;48.816;9.420;2023-01-30T00:34:57;99485.94;;;-4.15;96.71
48792;BME280;34587;48.816;9.420;2023-01-30T00:37:22;99476.03;;;-4.26;95.99
48792;BME280;34587;48.816;9.420;2023-01-30T00:39:47;99473.13;;;-4.34;95.97
48792;BME280;34587;48.816;9.420;2023-01-30T00:42:13;99463.50;;;-4.25;94.72
48792;BME280;34587;48.816;9.420;2023-01-30T00:44:57;99476.13;;;-4.41;95.88
48792;BME280;34587;48.816;9.420;2023-01-30T00:47:41;99467.97;;;-4.52;96.24
48792;BME280;34587;48.816;9.420;2023-01-30T00:50:07;99476.50;;;-4.50;96.92
48792;BME280;34587;48.816;9.420;2023-01-30T00:52:32;99478.56;;;-4.59;96.24
48792;BME280;34587;48.816;9.420;2023-01-30T00:54:57;99490.97;;;-4.47;96.42
48792;BME280;34587;48.816;9.420;2023-01-30T00:57:22;99494.06;;;-4.53;97.19
48792;BME280;34587;48.816;9.420;2023-01-30T00:59:48;99499.91;;;-4.54;97.26
48792;BME280;34587;48.816;9.420;2023-01-30T05:15:39;99327.50;;;-0.72;78.19
48792;BME280;34587;48.816;9.420;2023-01-30T05:18:05;99325.91;;;-0.69;78.41
48792;BME280;34587;48.816;9.420;2023-01-30T05:20:30;99316.25;;;-0.78;79.72
48792;BME280;34587;48.816;9.420;2023-01-30T05:22:55;99311.97;;;-0.79;79.85
48792;BME280;34587;48.816;9.420;2023-01-30T05:25:21;99312.09;;;-0.75;80.04
48792;BME280;34587;48.816;9.420;2023-01-30T05:27:46;99316.97;;;-0.82;78.78
48792;BME280;34587;48.816;9.420;2023-01-30T05:30:11;99311.97;;;-0.79;80.47
48792;BME280;34587;48.816;9.420;2023-01-30T05:32:36;99310.25;;;-0.80;80.71
48792;BME280;34587;48.816;9.420;2023-01-30T05:35:02;99318.75;;;-0.79;80.48
48792;BME280;34587;48.816;9.420;2023-01-30T05:37:27;99309.19;;;-0.62;80.28
48792;BME280;34587;48.816;9.420;2023-01-30T05:39:52;99297.75;;;-0.73;78.68
48792;BME280;34587;48.816;9.420;2023-01-30T05:42:18;99291.06;;;-0.71;79.24
48792;BME280;34587;48.816;9.420;2023-01-30T05:44:43;99285.56;;;-0.58;79.00
48792;BME280;34587;48.816;9.420;2023-01-30T05:47:08;99288.75;;;-0.64;78.62
48792;BME280;34587;48.816;9.420;2023-01-30T05:49:34;99295.59;;;-0.63;79.15
48792;BME280;34587;48.816;9.420;2023-01-30T05:51:59;99292.56;;;-0.27;76.38
48792;BME280;34587;48.816;9.420;2023-01-30T05:54:24;99291.88;;;-0.21;75.47
48792;BME280;34587;48.816;9.420;2023-01-30T05:56:50;99292.25;;;-0.36;76.75
48792;BME280;34587;48.816;9.420;2023-01-30T05:59:16;99301.13;;;-0.49;78.52
48792;BME280;34587;48.816;9.420;2023-01-30T06:01:42;99306.34;;;-0.46;77.79
48792;BME280;34587;48.816;9.420;2023-01-30T06:04:08;99315.00;;;-0.41;77.97
48792;BME280;34587;48.816;9.420;2023-01-30T06:06:33;99313.03;;;-0.24;76.25
48792;BME280;34587;48.816;9.420;2023-01-30T06:08:59;99308.81;;;-0.23;76.48
48792;BME280;34587;48.816;9.420;2023-01-30T06:11:24;99305.34;;;-0.26;75.95
48792;BME280;34587;48.816;9.420;2023-01-30T06:13:49;99292.44;;;-0.30;76.33
48792;BME280;34587;48.816;9.420;2023-01-30T06:16:15;99301.63;;;-0.35;76.89
48792;BME280;34587;48.816;9.420;2023-01-30T06:18:41;99297.31;;;-0.38;76.87
48792;BME280;34587;48.816;9.420;2023-01-30T06:21:07;99296.88;;;-0.24;76.70
48792;BME280;34587;48.816;9.420;2023-01-30T06:23:33;99285.78;;;-0.27;76.77
48792;BME280;34587;48.816;9.420;2023-01-30T06:25:58;99286.59;;;-0.28;77.25
48792;BME280;34587;48.816;9.420;2023-01-30T06:28:24;99281.41;;;-0.31;77.06
48792;BME280;34587;48.816;9.420;2023-01-30T06:30:50;99271.72;;;-0.15;75.92
48792;BME280;34587;48.816;9.420;2023-01-30T06:33:16;99270.84;;;-0.16;76.04
48792;BME280;34587;48.816;9.420;2023-01-30T06:35:42;99268.56;;;-0.08;75.27
48792;BME280;34587;48.816;9.420;2023-01-30T06:38:08;99269.69;;;0.00;74.91
48792;BME280;34587;48.816;9.420;2023-01-30T06:40:45;99270.72;;;0.07;73.66
48792;BME280;34587;48.816;9.420;2023-01-30T06:43:11;99275.69;;;0.02;74.79
48792;BME280;34587;48.816;9.420;2023-01-30T06:45:36;99268.88;;;0.01;73.94
48792;BME280;34587;48.816;9.420;2023-01-30T06:48:02;99275.69;;;0.02;73.44
48792;BME280;34587;48.816;9.420;2023-01-30T06:50:28;99281.63;;;0.03;73.66
48792;BME280;34587;48.816;9.420;2023-01-30T06:52:54;99286.47;;;-0.05;73.82
48792;BME280;34587;48.816;9.420;2023-01-30T06:55:22;99286.63;;;-0.01;74.36
48792;BME280;34587;48.816;9.420;2023-01-30T06:57:48;99276.66;;;0.06;73.70
48792;BME280;34587;48.816;9.420;2023-01-30T07:00:16;99267.84;;;-0.04;74.12
48792;BME280;34587;48.816;9.420;2023-01-30T07:02:43;99272.31;;;0.03;73.21
48792;BME280;34587;48.816;9.420;2023-01-30T07:05:09;99272.50;;;0.09;73.32
48792;BME280;34587;48.816;9.420;2023-01-30T07:07:35;99277.66;;;0.11;73.25
48792;BME280;34587;48.816;9.420;2023-01-30T07:10:02;99275.00;;;0.08;74.04
48792;BME280;34587;48.816;9.420;2023-01-30T07:12:28;99287.06;;;0.13;73.51
48792;BME280;34587;48.816;9.420;2023-01-30T07:14:53;99281.94;;;0.12;73.09
48792;BME280;34587;48.816;9.420;2023-01-30T07:17:19;99282.97;;;0.18;72.73
48792;BME280;34587;48.816;9.420;2023-01-30T07:19:45;99293.16;;;0.18;73.32
48792;BME280;34587;48.816;9.420;2023-01-30T07:22:11;99303.19;;;0.12;73.69
48792;BME280;34587;48.816;9.420;2023-01-30T07:24:36;99300.66;;;0.14;73.80
48792;BME280;34587;48.816;9.420;2023-01-30T07:27:05;99305.31;;;0.25;73.76
48792;BME280;34587;48.816;9.420;2023-01-30T07:29:31;99299.13;;;0.19;73.86
48792;BME280;34587;48.816;9.420;2023-01-30T07:31:56;99307.13;;;0.30;73.36
48792;BME280;34587;48.816;9.420;2023-01-30T07:34:21;99312.84;;;0.22;73.66
48792;BME280;34587;48.816;9.420;2023-01-30T07:36:46;99312.13;;;0.27;74.22
48792;BME280;34587;48.816;9.420;2023-01-30T07:39:12;99308.47;;;0.18;73.66
48792;BME280;34587;48.816;9.420;2023-01-30T07:41:37;99306.91;;;0.23;73.68
48792;BME280;34587;48.816;9.420;2023-01-30T07:44:02;99312.00;;;0.23;74.19
48792;BME280;34587;48.816;9.420;2023-01-30T07:46:28;99309.53;;;0.25;74.27
48792;BME280;34587;48.816;9.420;2023-01-30T07:48:59;99325.72;;;0.27;73.71
48792;BME280;34587;48.816;9.420;2023-01-30T07:51:25;99315.19;;;0.16;74.20
48792;BME280;34587;48.816;9.420;2023-01-30T07:53:50;99316.50;;;0.31;74.07
48792;BME280;34587;48.816;9.420;2023-01-30T07:56:15;99302.03;;;0.30;74.20
48792;BME280;34587;48.816;9.420;2023-01-30T07:58:43;99300.56;;;0.38;73.21
48792;BME280;34587;48.816;9.420;2023-01-30T08:01:08;99295.47;;;0.38;73.41
48792;BME280;34587;48.816;9.420;2023-01-30T08:03:33;99301.53;;;0.41;73.26
48792;BME280;34587;48.816;9.420;2023-01-30T08:05:59;99292.38;;;0.48;72.86
48792;BME280;34587;48.816;9.420;2023-01-30T08:08:24;99297.41;;;0.45;73.96
48792;BME280;34587;48.816;9.420;2023-01-30T08:10:49;99284.81;;;0.49;73.34
48792;BME280;34587;48.816;9.420;2023-01-30T08:13:14;99295.41;;;0.35;74.14
48792;BME280;34587;48.816;9.420;2023-01-30T08:15:40;99301.03;;;0.24;74.83
48792;BME280;34587;48.816;9.420;2023-01-30T08:18:05;99303.13;;;0.38;74.67
48792;BME280;34587;48.816;9.420;2023-01-30T08:20:31;99319.91;;;0.58;73.86
48792;BME280;34587;48.816;9.420;2023-01-30T08:22:58;99329.59;;;0.43;74.32
48792;BME280;34587;48.816;9.420;2023-01-30T08:25:23;99321.44;;;0.53;74.71
48792;BME280;34587;48.816;9.420;2023-01-30T08:27:50;99306.88;;;0.49;74.77
48792;BME280;34587;48.816;9.420;2023-01-30T08:30:17;99300.84;;;0.47;75.34
48792;BME280;34587;48.816;9.420;2023-01-30T08:32:42;99305.94;;;0.47;76.01
48792;BME280;34587;48.816;9.420;2023-01-30T08:35:08;99287.38;;;0.51;76.62
48792;BME280;34587;48.816;9.420;2023-01-30T08:37:34;99283.31;;;0.58;76.34
48792;BME280;34587;48.816;9.420;2023-01-30T08:39:59;99257.50;;;0.75;76.60
48792;BME280;34587;48.816;9.420;2023-01-30T08:42:25;99263.47;;;1.06;74.52
48792;BME280;34587;48.816;9.420;2023-01-30T08:44:50;99246.59;;;1.11;74.26
48792;BME280;34587;48.816;9.420;2023-01-30T08:47:15;99261.56;;;0.99;74.36
48792;BME280;34587;48.816;9.420;2023-01-30T08:49:41;99267.97;;;0.85;74.04
48792;BME280;34587;48.816;9.420;2023-01-30T08:52:06;99270.66;;;0.59;75.45
48792;BME280;34587;48.816;9.420;2023-01-30T08:54:31;99262.56;;;0.74;75.66
48792;BME280;34587;48.816;9.420;2023-01-30T08:56:56;99247.28;;;0.74;76.00
48792;BME280;34587;48.816;9.420;2023-01-30T08:59:22;99250.25;;;0.89;75.88
48792;BME280;34587;48.816;9.420;2023-01-30T09:01:47;99249.66;;;0.98;75.08
48792;BME280;34587;48.816;9.420;2023-01-30T09:04:12;99233.09;;;1.15;75.26
48792;BME280;34587;48.816;9.420;2023-01-30T09:06:38;99223.44;;;1.03;74.51
48792;BME280;34587;48.816;9.420;2023-01-30T09:09:03;99195.97;;;1.26;74.88
48792;BME280;34587;48.816;9.420;2023-01-30T09:11:28;99196.59;;;1.51;73.97
48792;BME280;34587;48.816;9.420;2023-01-30T09:13:54;99203.72;;;1.64;72.95
48792;BME280;34587;48.816;9.420;2023-01-30T09:16:19;99205.50;;;1.68;72.18
48792;BME280;34587;48.816;9.420;2023-01-30T09:18:44;99205.19;;;1.89;72.00
48792;BME280;34587;48.816;9.420;2023-01-30T09:21:11;99209.44;;;1.89;72.42
48792;BME280;34587;48.816;9.420;2023-01-30T09:23:37;99210.22;;;1.86;72.13
48792;BME280;34587;48.816;9.420;2023-01-30T09:26:03;99212.88;;;1.91;73.00
48792;BME280;34587;48.816;9.420;2023-01-30T09:28:29;99210.66;;;2.04;71.37
48792;BME280;34587;48.816;9.420;2023-01-30T09:30:56;99198.53;;;1.97;71.35
48792;BME280;34587;48.816;9.420;2023-01-30T09:33:22;99195.19;;;2.00;71.54
48792;BME280;34587;48.816;9.420;2023-01-30T09:35:48;99200.09;;;1.91;71.97
48792;BME280;34587;48.816;9.420;2023-01-30T09:38:13;99199.22;;;1.89;72.12
48792;BME280;34587;48.816;9.420;2023-01-30T09:40:51;99222.78;;;1.78;72.30
48792;BME280;34587;48.816;9.420;2023-01-30T09:43:41;99222.03;;;1.83;72.18
48792;BME280;34587;48.816;9.420;2023-01-30T09:52:02;99202.16;;;1.69;72.81
48792;BME280;34587;48.816;9.420;2023-01-30T09:54:35;99189.03;;;1.92;72.23
48792;BME280;34587;48.816;9.420;2023-01-30T09:57:17;99189.78;;;1.86;72.07
48792;BME280;34587;48.816;9.420;2023-01-30T09:59:59;99173.84;;;1.98;71.65
48792;BME280;34587;48.816;9.420;2023-01-30T10:02:40;99143.97;;;1.94;71.97
48792;BME280;34587;48.816;9.420;2023-01-30T10:05:09;99158.72;;;2.07;71.88
48792;BME280;34587;48.816;9.420;2023-01-30T10:16:10;99135.66;;;2.04;72.26
48792;BME280;34587;48.816;9.420;2023-01-30T10:18:59;99139.47;;;2.23;71.88
48792;BME280;34587;48.816;9.420;2023-01-30T10:26:52;99119.81;;;2.20;71.54
48792;BME280;34587;48.816;9.420;2023-01-30T10:29:23;99121.41;;;2.15;71.85
48792;BME280;34587;48.816;9.420;2023-01-30T10:31:56;99114.72;;;2.20;72.32
48792;BME280;34587;48.816;9.420;2023-01-30T10:34:29;99118.41;;;2.35;72.89
48792;BME280;34587;48.816;9.420;2023-01-30T10:37:08;99117.53;;;2.33;72.72
48792;BME280;34587;48.816;9.420;2023-01-30T10:42:38;99120.25;;;2.42;73.30
48792;BME280;34587;48.816;9.420;2023-01-30T10:45:19;99119.56;;;2.49;73.41
48792;BME280;34587;48.816;9.420;2023-01-30T10:50:23;99101.84;;;2.60;73.43
48792;BME280;34587;48.816;9.420;2023-01-30T10:53:16;99110.44;;;2.63;74.10
48792;BME280;34587;48.816;9.420;2023-01-30T10:55:46;99110.66;;;2.75;73.66
48792;BME280;34587;48.816;9.420;2023-01-30T11:01:44;99109.13;;;2.83;74.23
48792;BME280;34587;48.816;9.420;2023-01-30T11:04:25;99103.28;;;2.91;74.17
48792;BME280;34587;48.816;9.420;2023-01-30T11:06:55;99109.25;;;2.91;74.54
48792;BME280;34587;48.816;9.420;2023-01-30T11:09:21;99109.22;;;2.90;75.37
48792;BME280;34587;48.816;9.420;2023-01-30T11:11:52;99117.63;;;2.82;76.43
48792;BME280;34587;48.816;9.420;2023-01-30T11:14:18;99115.91;;;2.81;77.37
48792;BME280;34587;48.816;9.420;2023-01-30T11:16:49;99114.19;;;2.80;78.47
48792;BME280;34587;48.816;9.420;2023-01-30T11:19:17;99114.03;;;2.71;80.07
48792;BME280;34587;48.816;9.420;2023-01-30T11:21:48;99102.66;;;2.57;80.84
48792;BME280;34587;48.816;9.420;2023-01-30T11:24:19;99103.63;;;2.62;81.69
48792;BME280;34587;48.816;9.420;2023-01-30T11:26:44;99101.16;;;2.68;81.63
48792;BME280;34587;48.816;9.420;2023-01-30T11:29:29;99095.97;;;2.64;81.48
48792;BME280;34587;48.816;9.420;2023-01-30T11:31:57;99100.22;;;2.63;82.45
48792;BME280;34587;48.816;9.420;2023-01-30T11:34:25;99106.22;;;2.65;83.34
48792;BME280;34587;48.816;9.420;2023-01-30T11:36:51;99098.69;;;2.71;83.91
48792;BME280;34587;48.816;9.420;2023-01-30T11:41:57;99102.22;;;2.79;83.60
48792;BME280;34587;48.816;9.420;2023-01-30T11:44:40;99102.13;;;2.75;84.66
48792;BME280;34587;48.816;9.420;2023-01-30T11:47:09;99105.44;;;2.69;84.31
48792;BME280;34587;48.816;9.420;2023-01-30T11:49:42;99113.94;;;2.68;84.22
48792;BME280;34587;48.816;9.420;2023-01-30T11:52:11;99118.97;;;2.62;84.47
48792;BME280;34587;48.816;9.420;2023-01-30T11:54:38;99108.56;;;2.54;84.71
48792;BME280;34587;48.816;9.420;2023-01-30T11:57:11;99108.59;;;2.56;84.90
48792;BME280;34587;48.816;9.420;2023-01-30T11:59:53;99104.31;;;2.55;85.71
48792;BME280;34587;48.816;9.420;2023-01-30T12:02:28;99103.19;;;2.41;86.33
48792;BME280;34587;48.816;9.420;2023-01-30T12:05:02;99099.38;;;2.20;88.22
48792;BME280;34587;48.816;9.420;2023-01-30T12:07:31;99099.66;;;2.34;88.65
48792;BME280;34587;48.816;9.420;2023-01-30T12:09:57;99098.41;;;2.15;89.28
48792;BME280;34587;48.816;9.420;2023-01-30T12:12:29;99082.19;;;2.13;90.08
48792;BME280;34587;48.816;9.420;2023-01-30T12:15:26;99082.16;;;2.12;90.11
48792;BME280;34587;48.816;9.420;2023-01-30T12:18:00;99078.72;;;2.11;91.33
48792;BME280;34587;48.816;9.420;2023-01-30T12:20:45;99081.16;;;2.05;91.94
48792;BME280;34587;48.816;9.420;2023-01-30T12:23:24;99078.53;;;2.02;92.52
48792;BME280;34587;48.816;9.420;2023-01-30T12:28:45;99093.81;;;1.99;93.72
48792;BME280;34587;48.816;9.420;2023-01-30T12:31:18;99085.38;;;2.03;92.80
48792;BME280;34587;48.816;9.420;2023-01-30T12:33:47;99099.81;;;1.99;93.44
48792;BME280;34587;48.816;9.420;2023-01-30T12:36:21;99097.81;;;1.86;94.10
48792;BME280;34587;48.816;9.420;2023-01-30T12:39:22;99100.38;;;1.88;94.88
48792;BME280;34587;48.816;9.420;2023-01-30T12:44:54;99101.63;;;1.67;95.87
48792;BME280;34587;48.816;9.420;2023-01-30T12:47:49;99104.06;;;1.61;96.59
48792;BME280;34587;48.816;9.420;2023-01-30T12:50:28;99110.91;;;1.64;97.25
48792;BME280;34587;48.816;9.420;2023-01-30T12:53:46;99124.28;;;1.53;97.29
48792;BME280;34587;48.816;9.420;2023-01-30T12:56:25;99118.41;;;1.56;97.70
48792;BME280;34587;48.816;9.420;2023-01-30T12:59:06;99122.44;;;1.46;98.37
48792;BME280;34587;48.816;9.420;2023-01-30T13:02:11;99135.94;;;1.42;98.74
48792;BME280;34587;48.816;9.420;2023-01-30T13:07:26;99135.81;;;1.36;98.72
48792;BME280;34587;48.816;9.420;2023-01-30T13:15:02;99132.47;;;1.39;99.64
48792;BME280;34587;48.816;9.420;2023-01-30T13:17:43;99118.97;;;1.44;99.60
